Strona główna
METAR-TAF:

METAR-TAF

Lotnisko :

Blacksburg, Wirginia, Stany Zjednoczone

Szerokość geograficzna: 37-13N, Długość geograficzna: 080-25W, wysokość: 650 m

Aktualna obserwacja pogody

Raport powstał 22 minut temu, godzina 06:35 UTC
Cisza
Temperatura -3°C
Wilgotność 86%
Ciśnienie 1034 hPa
Widzialność: 16.1 km
bezchmurnie

METAR: KBCB 120635Z AUTO 00000KT 10SM CLR M03/M05 A3053 RMK AO2 T10331051

czas: 01:57 (06:57 UTC)

Prognoza

Raport powstał 1 godzina i 27 minut temu, godzina 05:30 UTC
Prognoza ważna od 12 godzina 06 UTC do 13 godzina 06 UTC
Wiatr 3 kt z kierunków zmiennych
Widzialność: 10 km
bezchmurnie
Od 12 godzina 1200 UTC
Wiatr 6 kt od wschodnio-południowy wschód
Widzialność: 10 km
bezchmurnie
Od 13 godzina 0000 UTC
Wiatr 5 kt od wschodnio-południowy wschód
Widzialność: 10 km
Zachmurzenie całkowite na wysokości 10000 ft

TAF: KBCB 120530Z 1206/1306 VRB03KT P6SM SKC FM121200 11006KT P6SM SKC FM130000 11005KT P6SM OVC100

Obserwacja i prognoza pogody dla ponad 4000 lotnisk (raport METAR i TAF).

Dostępne stacje oznaczono żółtymi i czerwonymi punktami na mapie.

Najedź kursorem aby zobaczyć nazwę stacji.

Kliknij aby zobaczyć obserwacje i prognozy pogody.

Aby zmienić mapę: kliknij na zielony przycisk z czarnym krzyżykiem, aby powiększyć; na zielony przycisk z myślnikiem, aby pomniejszyć; na zielone strzałki, aby przejść do map sąsiednich.


METAR-TAF: